Terminal Aerodrome Forecast
Issued by NWS

Home | Current Version | Previous Version | Text Only | Print | Product List | Glossary On
Versions: 1 2 3 4 5 6 7 8 9 10 11 12 13 14 15 16 17 18
000
FTUS43 KPAH 262330
TAFOWB
TAF
KOWB 262330Z 2700/2724 24006KT P6SM SCT250
     FM270100 VRB03KT P6SM BKN250
     FM271300 16008KT 6SM -SHRA OVC050
      TEMPO 2713/2717 3SM TSRA BKN035CB
     FM271700 19012KT P6SM BKN035
     FM272300 17006KT P6SM VCTS BKN040CB=

USA.gov is the U.S. government's official web portal to all federal, state and local government web resources and services.